Time;durP1;ratioP1;P1;durP2;ratioP2;P2;SDS_P1;SDS_P2;PMS_P1;PMS_P2;Temp;Humidity;BMP_temperature;BMP_pressure;BME280_temperature;BME280_humidity;BME280_pressure;Samples;Min_cycle;Max_cycle;Signal;HPM_P1;HPM_P2
2023/02/05 00:02:15;;;;;;;14.90;10.80;;;-2.30;94.10;;;-2.83;84.88;100014.34;5081306;28;21286;-79
2023/02/05 00:04:42;;;;;;;12.30;10.27;;;-2.30;94.00;;;-2.85;84.54;100004.69;5078134;28;20494;-77
2023/02/05 00:07:11;;;;;;;11.83;10.10;;;-2.30;93.70;;;-3.34;84.27;99944.63;5082070;28;20468;-79
2023/02/05 00:09:40;;;;;;;11.77;9.63;;;-2.30;93.50;;;-3.32;84.69;99950.72;5064584;28;20437;-81
2023/02/05 00:12:08;;;;;;;11.30;10.03;;;-2.40;93.60;;;-2.99;85.64;100021.28;5067254;28;20453;-77
2023/02/05 00:14:37;;;;;;;11.53;9.67;;;-2.40;94.60;;;-2.93;85.23;100024.53;5087590;28;20487;-76
2023/02/05 00:17:07;;;;;;;14.90;9.57;;;-2.40;94.30;;;-3.27;85.02;99967.19;5081516;28;20975;-77
2023/02/05 00:19:34;;;;;;;10.90;9.47;;;-2.30;94.20;;;-3.07;85.56;100004.94;5081437;28;20455;-80
2023/02/05 00:22:02;;;;;;;11.50;9.10;;;-2.30;94.10;;;-3.00;85.84;100019.59;5090634;28;20975;-79
2023/02/05 00:24:31;;;;;;;12.80;9.60;;;-2.30;94.80;;;-3.08;85.90;99997.13;5079820;28;20449;-80
2023/02/05 00:26:58;;;;;;;13.07;9.37;;;-2.30;94.70;;;-2.99;85.48;100018.66;5091644;28;20444;-77
2023/02/05 00:29:26;;;;;;;13.00;9.90;;;-2.40;94.00;;;-3.15;85.29;99984.19;5090718;28;20455;-80
2023/02/05 00:31:53;;;;;;;11.73;10.13;;;-2.40;94.20;;;-3.02;85.29;100007.38;5084993;28;20457;-77
2023/02/05 00:34:20;;;;;;;12.30;9.90;;;-2.40;94.00;;;-3.16;85.56;99974.53;5083970;28;20489;-79
2023/02/05 00:36:48;;;;;;;11.90;9.60;;;-2.40;94.30;;;-3.04;85.06;99990.72;5089314;28;20463;-76
2023/02/05 00:39:15;;;;;;;13.07;10.23;;;-2.40;93.90;;;-3.05;85.26;99991.66;5086718;28;20451;-78
2023/02/05 00:44:27;;;;;;;12.07;9.70;;;-2.50;94.40;;;-3.19;86.24;99990.59;5084070;28;20453;-79
2023/02/05 00:46:55;;;;;;;11.60;10.40;;;-2.50;95.20;;;-3.16;86.96;100000.16;5084399;28;20501;-78
2023/02/05 00:49:22;;;;;;;12.70;10.60;;;-2.60;96.20;;;-3.41;87.63;99972.31;5091826;28;20459;-78
2023/02/05 00:51:50;;;;;;;13.70;11.33;;;-2.60;97.90;;;-3.27;87.49;99998.03;5085197;28;20531;-77
2023/02/05 00:54:17;;;;;;;13.50;11.67;;;-2.60;97.40;;;-3.46;87.38;99958.50;5081654;28;20483;-78
2023/02/05 00:56:45;;;;;;;12.73;10.53;;;-2.60;97.50;;;-3.40;86.55;99981.13;5078628;28;21328;-76
2023/02/05 00:59:15;;;;;;;13.57;11.00;;;-2.60;97.20;;;-3.20;86.16;100007.38;5082071;28;20452;-82
2023/02/05 01:01:42;;;;;;;12.37;10.10;;;-2.60;96.80;;;-3.62;86.07;99943.41;5082144;28;20439;-79
2023/02/05 01:04:10;;;;;;;13.90;11.20;;;-2.60;96.30;;;-3.32;85.96;100022.09;5082706;28;20491;-79
2023/02/05 01:06:38;;;;;;;11.87;9.60;;;-2.60;95.60;;;-3.99;86.76;99927.59;5081720;28;20475;-80
2023/02/05 01:09:06;;;;;;;12.20;9.90;;;-2.70;95.30;;;-3.47;86.82;100009.66;5080600;28;20434;-79
2023/02/05 01:11:33;;;;;;;11.07;8.97;;;-2.70;95.40;;;-3.72;86.28;99969.41;5084016;28;20492;-77
2023/02/05 01:14:02;;;;;;;13.00;9.30;;;-2.70;95.20;;;-3.43;86.74;100027.88;5084681;28;20456;-80
2023/02/05 01:16:30;;;;;;;11.30;9.37;;;-2.70;94.60;;;-3.47;86.40;100017.56;5086807;28;20522;-79
2023/02/05 01:18:57;;;;;;;11.93;8.90;;;-2.80;95.00;;;-3.65;86.40;99999.03;5086089;28;20450;-76
2023/02/05 01:21:25;;;;;;;13.00;9.37;;;-2.80;94.90;;;-3.57;87.28;100014.50;5080022;28;20473;-76
2023/02/05 01:23:53;;;;;;;11.50;9.67;;;-2.90;95.60;;;-3.65;86.69;100016.69;5090173;28;20440;-79
2023/02/05 01:26:21;;;;;;;12.77;8.37;;;-2.90;95.20;;;-3.74;86.68;99988.94;5094000;28;20497;-78
2023/02/05 01:28:48;;;;;;;11.93;9.10;;;-2.90;95.40;;;-3.64;87.10;100015.75;5087682;28;20608;-79
2023/02/05 01:31:18;;;;;;;11.40;9.63;;;-2.90;95.40;;;-3.62;86.75;100009.47;5086885;28;20457;-77
2023/02/05 01:33:46;;;;;;;12.33;8.43;;;-3.00;95.60;;;-3.74;86.53;99995.06;5089405;28;20499;-76
2023/02/05 01:36:13;;;;;;;13.60;8.80;;;-3.00;95.00;;;-3.78;87.20;100004.06;5088779;28;20972;-78
2023/02/05 01:38:40;;;;;;;9.60;7.93;;;-3.10;96.40;;;-3.70;86.66;100003.69;5089075;28;20444;-77
2023/02/05 01:41:08;;;;;;;11.60;8.57;;;-3.10;96.40;;;-3.72;87.04;100003.75;5090722;28;20446;-78
2023/02/05 01:43:36;;;;;;;11.70;7.90;;;-3.00;96.90;;;-3.73;87.07;99996.75;5096839;28;20512;-76
2023/02/05 01:46:19;;;;;;;9.10;7.13;;;-3.00;96.20;;;-4.08;86.79;99935.13;5087094;28;20533;-80
2023/02/05 01:48:51;;;;;;;12.63;8.60;;;-3.00;96.00;;;-4.14;86.45;99923.06;5087833;28;20463;-76
2023/02/05 01:51:19;;;;;;;11.93;8.23;;;-3.00;95.90;;;-3.76;86.51;99981.06;5085852;28;20555;-75
2023/02/05 01:53:48;;;;;;;9.83;7.73;;;-3.00;95.30;;;-3.92;86.48;99953.69;5073116;28;20453;-77
2023/02/05 01:56:21;;;;;;;9.20;6.70;;;-3.10;94.90;;;-3.99;86.87;99947.84;5085946;28;20922;-79
2023/02/05 01:58:54;;;;;;;8.63;7.20;;;-3.20;94.90;;;-4.07;87.95;99939.47;5087300;28;20445;-76
2023/02/05 02:01:24;;;;;;;8.23;7.43;;;-3.20;96.40;;;-3.95;87.13;99956.50;5073563;28;20514;-76
2023/02/05 02:03:55;;;;;;;10.50;8.23;;;-3.20;96.20;;;-4.25;87.10;99905.09;5078918;28;20458;-80
2023/02/05 02:06:23;;;;;;;7.93;6.63;;;-3.20;97.20;;;-3.96;87.45;99952.16;5098008;28;20483;-76
2023/02/05 02:08:50;;;;;;;10.57;8.20;;;-3.20;97.30;;;-4.02;87.93;99948.00;5109271;28;20455;-75
2023/02/05 02:11:21;;;;;;;9.27;8.37;;;-3.20;97.60;;;-4.00;87.52;99956.72;5107445;28;20448;-78
2023/02/05 02:13:50;;;;;;;10.40;9.30;;;-3.20;97.10;;;-4.55;87.92;99866.91;5096475;28;20472;-80
2023/02/05 02:16:18;;;;;;;11.10;8.70;;;-3.20;98.20;;;-3.86;87.52;99963.97;5087861;28;20451;-76
2023/02/05 02:18:47;;;;;;;10.30;8.00;;;-3.20;98.60;;;-3.99;87.57;99943.44;5095559;28;20449;-76
2023/02/05 02:21:51;;;;;;;12.70;9.17;;;-3.20;98.10;;;-4.06;87.78;99934.09;5085146;28;20440;-76
2023/02/05 02:25:14;;;;;;;8.77;7.73;;;-3.20;97.50;;;-3.85;86.95;99955.13;5088560;28;20440;-78
2023/02/05 02:27:49;;;;;;;11.23;9.03;;;-3.30;97.70;;;-4.06;87.66;99926.19;5046784;28;20461;-78
2023/02/05 02:30:23;;;;;;;12.40;8.73;;;-3.40;97.30;;;-4.53;87.88;99855.44;5085854;28;20455;-76
2023/02/05 02:33:01;;;;;;;10.07;8.90;;;-3.40;98.00;;;-3.96;88.01;99931.03;5092479;28;20468;-76
2023/02/05 02:35:38;;;;;;;12.07;9.03;;;-3.30;99.90;;;-3.94;88.42;99927.38;5067951;28;20460;-79
2023/02/05 02:38:17;;;;;;;10.93;8.67;;;-3.30;99.90;;;-3.92;88.24;99925.50;5080565;28;20820;-76
2023/02/05 02:40:50;;;;;;;10.57;8.80;;;-3.20;99.90;;;-4.21;88.44;99871.47;5081592;28;20544;-77
2023/02/05 02:43:25;;;;;;;10.20;8.83;;;-3.20;99.60;;;-4.25;88.25;99880.50;5064660;28;20435;-78
2023/02/05 02:46:00;;;;;;;11.40;8.67;;;-3.30;98.80;;;-3.97;88.19;99921.38;5082262;28;20567;-79
2023/02/05 02:48:31;;;;;;;10.90;8.20;;;-3.30;99.70;;;-4.05;88.53;99919.97;5078423;28;20452;-77
2023/02/05 02:51:00;;;;;;;9.57;8.20;;;-3.30;99.10;;;-4.21;88.09;99879.41;5079440;28;20457;-77
2023/02/05 02:53:32;;;;;;;14.23;9.43;;;-3.30;99.90;;;-4.45;87.86;99869.13;5085377;28;20467;-77
2023/02/05 02:56:04;;;;;;;10.40;8.67;;;-3.40;99.40;;;-4.17;88.65;99913.50;5079350;28;20449;-77
2023/02/05 02:58:39;;;;;;;12.20;9.53;;;-3.40;99.90;;;-4.21;88.14;99895.25;5060590;28;20453;-80
2023/02/05 03:01:11;;;;;;;12.30;9.53;;;-3.40;99.90;;;-4.19;87.93;99896.03;5071059;28;20461;-77
2023/02/05 03:03:48;;;;;;;10.03;8.23;;;-3.50;99.90;;;-4.05;87.99;99921.75;5084544;28;20476;-78
2023/02/05 03:06:21;;;;;;;10.93;8.93;;;-3.40;99.90;;;-4.51;88.70;99857.06;5080417;28;21032;-78
2023/02/05 03:08:57;;;;;;;13.67;9.60;;;-3.50;99.90;;;-4.04;87.97;99934.03;5080420;28;20547;-78
2023/02/05 03:11:26;;;;;;;10.57;8.73;;;-3.50;99.90;;;-3.96;87.37;99941.59;5082421;28;20446;-78
2023/02/05 03:13:56;;;;;;;15.70;9.70;;;-3.50;99.90;;;-3.95;87.20;99943.28;5086121;28;20446;-77
2023/02/05 03:16:26;;;;;;;12.90;9.00;;;-3.40;99.90;;;-4.21;87.29;99900.53;5080553;28;21050;-75
2023/02/05 03:18:56;;;;;;;9.07;8.17;;;-3.30;99.90;;;-3.94;87.35;99939.72;5082953;28;20453;-78
2023/02/05 03:21:30;;;;;;;10.90;8.23;;;-3.30;99.00;;;-3.99;87.08;99932.88;5088142;28;20828;-78
2023/02/05 03:23:57;;;;;;;11.63;8.00;;;-3.30;97.60;;;-4.02;87.28;99921.59;5084014;28;20453;-81
2023/02/05 03:26:27;;;;;;;9.57;8.57;;;-3.30;97.00;;;-4.09;87.81;99921.06;5101074;27;20473;-75
2023/02/05 03:28:57;;;;;;;11.07;9.60;;;-3.30;98.20;;;-4.19;87.95;99896.03;5081261;28;20451;-78
2023/02/05 03:31:35;;;;;;;10.60;8.87;;;-3.30;97.20;;;-4.15;88.32;99922.19;5084022;28;20928;-75
2023/02/05 03:34:16;;;;;;;13.13;8.53;;;-3.30;97.20;;;-4.07;87.36;99918.34;5108693;28;20544;-76
2023/02/05 03:36:57;;;;;;;11.73;9.60;;;-3.40;96.90;;;-4.25;87.98;99905.09;5082111;28;20456;-75
2023/02/05 03:39:42;;;;;;;11.97;9.10;;;-3.40;98.00;;;-4.36;88.37;99895.06;5079883;28;20444;-77
2023/02/05 03:42:28;;;;;;;14.17;10.20;;;-3.50;97.60;;;-4.55;89.05;99860.78;5077748;28;20542;-78
2023/02/05 03:45:31;;;;;;;13.83;9.00;;;-3.50;98.90;;;-4.34;88.98;99901.09;5082067;28;20646;-77
2023/02/05 03:48:28;;;;;;;12.87;9.97;;;-3.50;98.90;;;-4.27;88.46;99902.53;5083979;28;20465;-77
2023/02/05 03:51:17;;;;;;;13.70;9.03;;;-3.50;99.30;;;-4.37;88.03;99869.59;5053214;28;20448;-76
2023/02/05 03:53:53;;;;;;;11.20;9.63;;;-3.50;98.00;;;-4.21;87.95;99889.97;5085248;28;20458;-77
2023/02/05 03:56:29;;;;;;;13.40;8.70;;;-3.60;99.90;;;-4.23;88.02;99887.41;5082143;28;20972;-78
2023/02/05 03:58:57;;;;;;;9.60;8.63;;;-3.60;99.00;;;-5.02;88.06;99761.91;5079199;28;20448;-77
2023/02/05 04:01:27;;;;;;;14.77;10.50;;;-3.60;98.70;;;-4.29;88.00;99888.56;5082088;28;20457;-77
2023/02/05 04:03:54;;;;;;;13.17;9.47;;;-3.70;98.20;;;-4.21;88.41;99885.56;5081846;28;20451;-77
2023/02/05 04:06:21;;;;;;;10.03;7.93;;;-3.60;99.90;;;-4.61;87.83;99830.28;5088993;28;20469;-77
2023/02/05 04:08:50;;;;;;;10.70;8.60;;;-3.70;99.20;;;-4.42;88.07;99861.06;5084967;28;20461;-75
2023/02/05 04:11:17;;;;;;;13.93;9.73;;;-3.80;99.00;;;-4.39;87.73;99860.91;5088504;28;20444;-77
2023/02/05 04:13:44;;;;;;;10.57;8.33;;;-3.70;99.90;;;-4.22;87.53;99896.19;5099433;28;20452;-76
2023/02/05 04:16:12;;;;;;;10.57;8.57;;;-3.60;99.80;;;-4.37;87.71;99869.59;5077623;28;20449;-76
2023/02/05 04:18:40;;;;;;;9.77;8.80;;;-3.70;98.40;;;-4.42;87.63;99861.88;5084879;28;21013;-76
2023/02/05 04:21:10;;;;;;;9.73;8.43;;;-3.60;99.00;;;-4.34;87.65;99880.00;5088763;28;20448;-75
2023/02/05 04:23:38;;;;;;;11.30;7.67;;;-3.60;98.50;;;-4.36;87.23;99860.75;5089238;28;20436;-77
2023/02/05 04:26:05;;;;;;;9.50;7.97;;;-3.60;97.90;;;-4.27;87.15;99884.06;5071346;28;21560;-74
2023/02/05 04:28:33;;;;;;;10.37;9.00;;;-3.60;97.00;;;-4.36;87.19;99881.03;5089350;28;20454;-75
2023/02/05 04:31:00;;;;;;;9.90;8.50;;;-3.70;96.80;;;-4.96;87.25;99782.69;5065909;28;20437;-77
2023/02/05 04:33:27;;;;;;;8.70;7.80;;;-3.60;97.10;;;-4.61;87.19;99827.66;5081158;28;20944;-81
2023/02/05 04:36:07;;;;;;;12.07;8.50;;;-3.70;96.40;;;-4.46;86.79;99854.22;5083240;28;20471;-76
2023/02/05 04:38:36;;;;;;;10.87;8.23;;;-3.60;96.30;;;-4.39;87.18;99886.44;5081551;28;20458;-79
2023/02/05 04:41:05;;;;;;;9.80;8.90;;;-3.70;96.10;;;-4.92;86.43;99781.66;5086973;28;20448;-77
2023/02/05 04:43:32;;;;;;;9.33;7.47;;;-3.70;95.80;;;-4.35;86.50;99894.13;5083651;28;20493;-83
2023/02/05 04:46:05;;;;;;;9.77;7.60;;;-3.70;95.50;;;-4.42;86.59;99898.00;5078491;28;20464;-76
2023/02/05 04:48:33;;;;;;;8.47;7.10;;;-3.70;95.20;;;-4.49;86.52;99907.13;5083033;28;20487;-76
2023/02/05 04:51:07;;;;;;;9.50;7.60;;;-3.70;94.80;;;-4.54;85.76;99896.81;5087259;28;20800;-76
2023/02/05 04:53:34;;;;;;;10.03;7.63;;;-3.70;94.30;;;-5.13;85.70;99808.06;5085871;28;20558;-77
2023/02/05 04:56:06;;;;;;;8.90;7.80;;;-3.70;93.90;;;-4.60;86.22;99911.16;5085208;28;20448;-76
2023/02/05 04:58:35;;;;;;;8.23;6.70;;;-3.80;93.30;;;-4.61;86.84;99906.78;5083783;28;20443;-78
2023/02/05 05:01:03;;;;;;;7.47;6.10;;;-3.80;93.70;;;-4.61;86.59;99901.53;5086806;28;20456;-76
2023/02/05 05:03:31;;;;;;;8.33;7.30;;;-3.90;94.00;;;-4.63;86.16;99906.00;5080073;28;20453;-78
2023/02/05 05:06:05;;;;;;;10.33;7.43;;;-3.90;94.40;;;-4.64;85.98;99912.19;5089418;28;22056;-79
2023/02/05 05:08:33;;;;;;;8.60;7.17;;;-3.90;94.30;;;-4.90;85.97;99860.66;5081276;28;20447;-79
2023/02/05 05:11:06;;;;;;;7.83;7.07;;;-3.90;94.00;;;-4.87;85.99;99882.47;5067313;28;20452;-76
2023/02/05 05:13:34;;;;;;;9.87;8.30;;;-4.00;93.70;;;-4.84;86.69;99895.53;5088311;28;20564;-78
2023/02/05 05:16:03;;;;;;;7.77;6.90;;;-4.00;94.10;;;-4.88;86.04;99886.06;5074010;28;20447;-78
2023/02/05 05:18:35;;;;;;;10.77;8.00;;;-4.00;94.00;;;-5.01;86.45;99867.28;5077847;28;20536;-78
2023/02/05 05:21:05;;;;;;;7.50;6.57;;;-4.00;94.40;;;-4.86;86.76;99900.00;5084234;28;20454;-76
2023/02/05 05:23:34;;;;;;;10.93;7.53;;;-4.10;94.10;;;-4.90;86.43;99898.47;5080731;28;20555;-77
2023/02/05 05:26:06;;;;;;;7.80;6.73;;;-4.10;94.20;;;-5.00;86.81;99871.66;5095678;27;20459;-78
2023/02/05 05:28:33;;;;;;;8.30;6.87;;;-4.10;94.50;;;-5.27;85.89;99821.91;5074385;28;20482;-78
2023/02/05 05:31:09;;;;;;;10.73;7.73;;;-4.10;94.10;;;-4.99;85.78;99862.81;5084745;28;20523;-78
2023/02/05 05:33:38;;;;;;;8.70;7.30;;;-4.10;93.80;;;-5.14;85.37;99843.28;5091965;28;20943;-76
2023/02/05 05:36:12;;;;;;;8.97;6.77;;;-4.20;93.30;;;-4.97;85.39;99870.63;5087504;28;20556;-78
2023/02/05 05:38:40;;;;;;;7.37;6.60;;;-4.20;93.10;;;-4.88;85.63;99898.38;5090318;28;20461;-76
2023/02/05 05:43:54;;;;;;;7.40;6.20;;;-4.20;92.90;;;-5.19;86.03;99866.38;5106410;28;20478;-76
2023/02/05 05:46:24;;;;;;;7.70;6.40;;;-4.10;93.00;;;-4.94;85.92;99902.13;5078957;28;20453;-76
2023/02/05 05:48:54;;;;;;;8.77;6.90;;;-4.10;93.00;;;-5.03;86.07;99899.94;5099676;27;20453;-77
2023/02/05 05:51:25;;;;;;;8.47;6.77;;;-4.20;92.70;;;-5.15;86.26;99861.81;5080801;28;20457;-76
2023/02/05 05:53:53;;;;;;;8.00;6.23;;;-4.20;92.80;;;-5.26;86.12;99838.56;5081765;28;20506;-76
2023/02/05 05:56:24;;;;;;;7.00;6.30;;;-4.20;92.90;;;-5.04;86.51;99879.78;5078750;28;20480;-74
2023/02/05 05:58:52;;;;;;;7.10;6.20;;;-4.20;93.40;;;-4.99;86.24;99883.03;5095062;28;20519;-77
2023/02/05 06:01:21;;;;;;;8.17;6.53;;;-4.20;93.20;;;-4.99;86.27;99883.03;5064087;28;20528;-78
2023/02/05 06:03:49;;;;;;;7.67;6.77;;;-4.30;93.60;;;-5.02;86.12;99894.56;5098214;28;20453;-81
2023/02/05 06:06:17;;;;;;;7.33;6.40;;;-4.30;93.10;;;-6.13;86.25;99716.03;5106195;28;20515;-79
2023/02/05 06:08:45;;;;;;;7.37;6.50;;;-4.40;94.30;;;-5.42;86.64;99833.97;5081272;28;20444;-75
2023/02/05 06:11:13;;;;;;;7.70;6.00;;;-4.30;94.80;;;-5.03;86.27;99897.31;5094102;28;20447;-78
2023/02/05 06:13:40;;;;;;;8.03;6.70;;;-4.30;94.70;;;-5.28;86.08;99845.69;5093363;28;20456;-76
2023/02/05 06:16:09;;;;;;;7.13;6.43;;;-4.30;94.60;;;-5.65;85.85;99797.28;5079887;28;20444;-75
2023/02/05 06:18:37;;;;;;;7.53;6.67;;;-4.40;94.20;;;-4.96;86.62;99888.16;5088323;28;20530;-76
2023/02/05 06:21:05;;;;;;;6.73;5.90;;;-4.30;95.70;;;-5.07;86.62;99880.75;5082789;28;20970;-77
2023/02/05 06:23:34;;;;;;;9.90;6.20;;;-4.30;95.20;;;-5.24;86.90;99868.31;5087810;28;20541;-78
2023/02/05 06:26:03;;;;;;;6.20;5.60;;;-4.20;95.30;;;-5.16;86.42;99870.63;5087552;28;20467;-75
2023/02/05 06:28:30;;;;;;;7.13;6.20;;;-4.30;94.40;;;-5.05;86.84;99896.53;5077827;28;20902;-74
2023/02/05 06:30:57;;;;;;;6.90;6.10;;;-4.20;94.90;;;-5.53;86.93;99803.78;5084203;28;20448;-78
2023/02/05 06:33:25;;;;;;;7.63;6.53;;;-4.20;95.50;;;-5.56;86.62;99767.88;5080661;28;20450;-78
2023/02/05 06:35:52;;;;;;;7.10;6.43;;;-4.10;94.90;;;-5.26;86.87;99822.75;5060531;28;20480;-77
2023/02/05 06:38:20;;;;;;;7.97;7.03;;;-4.10;94.60;;;-4.93;86.62;99872.19;5079397;28;20542;-76
2023/02/05 06:40:48;;;;;;;6.40;5.77;;;-4.10;94.20;;;-4.87;86.59;99882.47;5083440;28;20487;-76
2023/02/05 06:43:18;;;;;;;7.77;5.90;;;-4.10;94.50;;;-5.23;86.03;99801.53;5082330;28;20453;-75
2023/02/05 06:45:45;;;;;;;8.17;6.40;;;-4.10;94.80;;;-5.14;86.04;99824.81;5086988;28;20446;-78
2023/02/05 06:48:17;;;;;;;6.43;5.70;;;-4.10;93.70;;;-4.93;86.39;99850.25;5065943;28;20522;-76
2023/02/05 06:50:44;;;;;;;8.53;6.63;;;-4.10;94.10;;;-4.81;85.87;99875.19;5078334;28;20456;-74
2023/02/05 06:53:11;;;;;;;11.97;6.57;;;-4.10;94.30;;;-4.80;85.84;99866.38;5080197;28;20447;-75
2023/02/05 06:55:39;;;;;;;8.57;6.00;;;-4.00;93.70;;;-4.78;85.98;99869.78;5079345;28;20455;-78
2023/02/05 06:58:07;;;;;;;7.13;6.43;;;-4.00;93.40;;;-4.73;85.70;99878.34;5073919;28;20474;-75
2023/02/05 07:00:38;;;;;;;7.43;6.00;;;-4.00;93.20;;;-4.66;85.77;99882.41;5089082;28;20451;-75
2023/02/05 07:03:05;;;;;;;7.37;6.00;;;-4.00;93.60;;;-4.63;85.66;99882.25;5074534;28;20527;-78
2023/02/05 07:05:34;;;;;;;11.63;5.83;;;-3.90;93.50;;;-4.70;85.42;99880.84;5069627;28;20454;-79
2023/02/05 07:08:02;;;;;;;6.50;5.60;;;-3.90;93.20;;;-5.67;85.54;99723.59;5067527;28;20502;-78
2023/02/05 07:10:31;;;;;;;7.50;5.77;;;-3.90;92.90;;;-4.81;85.45;99854.09;5071832;28;20444;-77
2023/02/05 07:12:58;;;;;;;6.70;5.30;;;-3.80;92.60;;;-4.47;85.74;99910.56;5072969;28;20457;-75
2023/02/05 07:15:26;;;;;;;7.07;6.37;;;-3.70;93.10;;;-4.38;85.61;99902.19;5075638;28;20461;-80
2023/02/05 07:17:54;;;;;;;7.33;5.97;;;-3.60;93.40;;;-4.18;84.99;99898.59;5072713;28;20536;-75
2023/02/05 07:20:22;;;;;;;7.17;6.27;;;-3.50;92.90;;;-4.10;84.53;99897.34;5075335;28;20476;-76
2023/02/05 07:22:49;;;;;;;6.10;5.13;;;-3.40;92.20;;;-4.13;84.77;99898.38;5071102;28;20452;-77
2023/02/05 07:25:16;;;;;;;7.20;5.63;;;-3.30;91.30;;;-3.97;84.41;99902.91;5086912;28;20458;-77
2023/02/05 07:27:44;;;;;;;6.53;5.50;;;-3.20;91.40;;;-3.97;84.29;99892.34;5074689;28;20472;-74
2023/02/05 07:30:14;;;;;;;6.27;5.50;;;-3.20;90.90;;;-3.81;84.22;99885.34;5071968;28;20551;-75
2023/02/05 07:32:41;;;;;;;7.40;4.87;;;-3.10;91.30;;;-3.70;84.36;99861.88;5074989;28;20448;-78
2023/02/05 07:35:11;;;;;;;6.37;5.67;;;-3.00;91.30;;;-3.63;83.27;99866.84;5075692;28;20463;-77
2023/02/05 07:37:38;;;;;;;6.63;5.70;;;-2.90;90.70;;;-3.43;83.06;99866.66;5083622;28;20996;-75
2023/02/05 07:40:07;;;;;;;8.10;5.73;;;-2.80;90.70;;;-3.68;82.80;99863.59;5079138;28;20452;-76
2023/02/05 07:42:34;;;;;;;6.50;5.43;;;-2.80;89.30;;;-3.62;83.28;99860.63;5079480;28;20450;-77
2023/02/05 07:45:02;;;;;;;10.40;6.57;;;-2.90;89.30;;;-3.70;82.79;99848.69;5072852;28;20457;-75
2023/02/05 07:47:29;;;;;;;8.83;5.90;;;-2.90;88.50;;;-3.75;83.20;99852.47;5075047;28;20988;-75
2023/02/05 07:49:56;;;;;;;7.17;6.47;;;-2.90;88.10;;;-3.72;82.90;99829.38;5089235;28;20448;-76
2023/02/05 07:52:24;;;;;;;8.17;6.07;;;-2.80;88.20;;;-3.48;82.78;99831.69;5076720;28;20476;-77
2023/02/05 07:54:51;;;;;;;6.87;6.17;;;-2.80;88.80;;;-3.36;81.89;99831.97;5081209;28;21307;-76
2023/02/05 07:57:19;;;;;;;17.03;6.13;;;-2.70;87.90;;;-3.11;81.59;99830.63;5101859;27;20671;-77
2023/02/05 07:59:46;;;;;;;7.67;5.87;;;-2.50;88.50;;;-3.29;82.13;99828.91;5098153;28;20449;-76
2023/02/05 08:02:13;;;;;;;7.53;6.60;;;-2.50;86.90;;;-2.88;81.85;99832.00;5085504;28;20465;-76
2023/02/05 08:04:40;;;;;;;7.40;6.50;;;-2.30;87.90;;;-2.72;80.80;99824.09;5102820;28;20456;-71
2023/02/05 08:07:09;;;;;;;9.47;6.63;;;-2.20;87.50;;;-2.50;80.37;99823.72;5100539;28;20508;-73
2023/02/05 08:09:37;;;;;;;8.23;6.27;;;-1.90;86.10;;;-2.63;79.98;99807.72;5098662;28;20459;-71
2023/02/05 08:12:06;;;;;;;9.40;6.27;;;-1.90;84.30;;;-2.38;79.19;99827.47;5102745;28;20460;-73
2023/02/05 08:14:33;;;;;;;7.00;5.60;;;-1.70;84.00;;;-2.58;79.07;99815.38;5084875;28;20466;-76
2023/02/05 08:17:01;;;;;;;6.70;5.47;;;-1.70;81.90;;;-2.54;78.34;99784.28;5084392;28;20443;-73
2023/02/05 08:19:28;;;;;;;7.50;5.80;;;-1.60;81.90;;;-2.66;78.84;99793.78;5086539;28;20463;-77
2023/02/05 08:21:55;;;;;;;6.17;5.57;;;-1.70;81.30;;;-2.66;78.88;99802.56;5082686;28;20479;-77
2023/02/05 08:24:22;;;;;;;7.90;6.33;;;-1.70;81.30;;;-2.36;79.32;99793.81;5081202;28;20457;-76
2023/02/05 08:26:51;;;;;;;7.73;5.70;;;-1.70;81.90;;;-2.73;77.54;99716.53;5082417;28;20463;-76
2023/02/05 08:29:19;;;;;;;6.57;5.73;;;-1.50;81.40;;;-2.18;77.46;99796.34;5083065;28;20471;-76
2023/02/05 08:31:46;;;;;;;5.83;5.30;;;-1.40;80.20;;;-2.16;77.97;99789.16;5081895;28;21237;-77
2023/02/05 08:34:15;;;;;;;7.23;5.97;;;-1.30;80.40;;;-1.83;77.81;99784.56;5076672;28;20466;-76
2023/02/05 08:36:42;;;;;;;9.63;6.43;;;-1.20;80.90;;;-1.40;75.77;99781.94;5080036;28;20958;-75
2023/02/05 08:39:09;;;;;;;6.20;5.60;;;-1.00;80.20;;;-1.42;75.38;99783.84;5087771;28;20511;-77
2023/02/05 08:41:37;;;;;;;7.50;6.00;;;-0.80;79.10;;;-1.71;75.47;99702.53;5090034;28;20465;-75
2023/02/05 08:44:06;;;;;;;9.47;6.87;;;-0.70;79.00;;;-0.82;74.84;99796.94;5075810;28;20458;-77
2023/02/05 08:46:33;;;;;;;7.83;6.20;;;-0.50;78.90;;;-1.23;74.27;99730.50;5075314;28;20455;-74
2023/02/05 08:49:00;;;;;;;8.33;7.43;;;-0.30;78.60;;;-1.19;73.96;99810.75;5102203;27;21060;-75
2023/02/05 08:51:28;;;;;;;6.13;5.47;;;-0.40;76.90;;;-0.79;74.53;99802.88;5077027;28;20446;-74
2023/02/05 08:53:55;;;;;;;9.17;6.70;;;-0.30;77.90;;;-0.73;73.30;99791.91;5082449;28;20484;-75
2023/02/05 08:56:25;;;;;;;7.03;6.20;;;-0.20;77.40;;;-0.25;72.92;99800.31;5074391;28;20453;-79
2023/02/05 08:58:55;;;;;;;9.03;6.10;;;0.10;77.40;;;-0.45;71.82;99795.41;5091053;27;20513;-75
2023/02/05 09:01:24;;;;;;;7.23;6.17;;;0.20;75.90;;;-0.83;73.02;99787.25;5071130;28;20466;-77
2023/02/05 09:03:53;;;;;;;6.60;6.00;;;0.00;76.00;;;-0.48;72.51;99784.97;5077437;28;20447;-83
2023/02/05 09:06:21;;;;;;;6.40;5.73;;;0.10;76.50;;;-0.33;72.12;99785.75;5072283;28;20576;-80
2023/02/05 09:08:48;;;;;;;6.93;5.73;;;0.20;76.30;;;-0.35;72.59;99776.19;5083413;28;20477;-78
2023/02/05 09:11:21;;;;;;;6.40;5.80;;;0.20;75.80;;;0.01;71.29;99768.50;5087803;28;20462;-77
2023/02/05 09:13:49;;;;;;;8.40;7.30;;;0.40;75.80;;;0.19;71.90;99750.44;5072937;28;21021;-74
2023/02/05 09:16:16;;;;;;;7.77;6.47;;;0.70;76.00;;;0.54;70.60;99752.44;5089015;28;20450;-76
2023/02/05 09:18:44;;;;;;;8.23;6.77;;;0.90;75.50;;;0.20;71.08;99742.34;5074221;28;20469;-76
2023/02/05 09:21:13;;;;;;;8.03;6.70;;;0.90;75.00;;;0.14;70.92;99737.47;5071795;28;20558;-78
2023/02/05 09:23:40;;;;;;;9.57;6.93;;;0.80;75.10;;;0.33;69.97;99717.56;5072623;28;21008;-77
2023/02/05 09:26:08;;;;;;;8.67;7.30;;;1.00;75.00;;;0.44;69.70;99688.41;5072487;28;20518;-77
2023/02/05 09:28:35;;;;;;;8.10;6.37;;;1.20;75.20;;;0.92;69.57;99729.38;5075805;28;20509;-79
2023/02/05 09:31:07;;;;;;;7.90;6.40;;;1.40;74.60;;;0.32;70.08;99731.81;5092487;28;20470;-77
2023/02/05 09:33:35;;;;;;;13.63;8.03;;;1.10;73.70;;;-0.02;70.40;99658.78;5078653;28;20455;-76
2023/02/05 09:36:08;;;;;;;7.93;6.93;;;1.10;74.60;;;0.74;70.22;99729.75;5085679;28;20454;-76
2023/02/05 09:38:36;;;;;;;7.97;7.17;;;1.10;74.80;;;0.83;68.96;99731.75;5080481;28;20455;-77
2023/02/05 09:41:08;;;;;;;8.70;6.23;;;1.30;74.40;;;0.79;68.95;99734.75;5099710;28;20458;-73
2023/02/05 09:43:51;;;;;;;8.33;7.40;;;1.30;74.10;;;0.66;69.83;99732.94;5082948;28;20460;-83
2023/02/05 09:46:29;;;;;;;8.63;7.13;;;1.30;74.20;;;0.44;69.90;99712.34;5098766;28;20455;-76
2023/02/05 09:49:03;;;;;;;7.17;6.47;;;1.30;73.90;;;0.94;70.26;99730.09;5079157;28;20477;-76
2023/02/05 09:51:36;;;;;;;8.37;6.40;;;1.40;74.90;;;1.06;68.61;99713.25;5084141;28;20462;-74
2023/02/05 09:54:14;;;;;;;6.90;6.20;;;1.50;74.10;;;1.33;67.79;99704.19;5091565;28;20459;-78
2023/02/05 09:56:43;;;;;;;7.17;6.47;;;1.70;73.70;;;1.34;67.89;99721.84;5096843;28;20452;-75
2023/02/05 09:59:17;;;;;;;7.47;6.57;;;1.80;74.20;;;1.12;68.81;99704.78;5094761;28;20462;-73
2023/02/05 10:01:50;;;;;;;7.77;6.97;;;1.70;73.70;;;0.94;68.97;99708.81;5097363;28;20442;-72
2023/02/05 10:04:18;;;;;;;6.97;6.27;;;1.70;73.70;;;1.03;68.91;99708.16;5098296;28;20473;-76
2023/02/05 10:07:09;;;;;;;7.77;7.07;;;1.60;74.10;;;1.61;68.75;99711.91;5094421;28;20450;-73
2023/02/05 10:10:06;;;;;;;8.13;6.57;;;1.80;74.50;;;1.25;68.53;99722.53;5093931;28;20479;-73
2023/02/05 10:12:48;;;;;;;7.47;6.57;;;1.80;73.40;;;1.10;68.76;99713.88;5081257;28;20459;-76
2023/02/05 10:15:31;;;;;;;6.63;6.03;;;1.70;73.60;;;1.35;69.03;99712.03;5081220;28;20459;-79
2023/02/05 10:18:12;;;;;;;7.20;6.30;;;1.80;74.10;;;1.49;67.85;99695.03;5081642;28;20704;-75
2023/02/05 10:21:01;;;;;;;7.73;6.60;;;1.90;74.10;;;1.78;68.16;99702.63;5095822;28;20535;-77
2023/02/05 10:23:49;;;;;;;6.90;6.20;;;2.00;74.00;;;2.08;66.35;99696.72;5082823;28;20479;-77
2023/02/05 10:26:17;;;;;;;6.97;5.77;;;2.30;73.40;;;2.08;66.36;99690.56;5080347;28;20480;-77
2023/02/05 10:29:12;;;;;;;7.53;6.83;;;2.50;73.30;;;2.08;68.12;99682.56;5085849;28;20561;-76
2023/02/05 10:31:43;;;;;;;8.40;6.60;;;2.40;74.00;;;2.19;66.50;99687.88;5076224;28;20491;-77
2023/02/05 10:34:19;;;;;;;6.50;5.90;;;2.60;73.00;;;2.04;67.15;99676.63;5073256;28;20451;-76
2023/02/05 10:36:51;;;;;;;6.50;6.00;;;2.50;73.10;;;2.27;66.34;99679.28;5078213;28;20487;-77
2023/02/05 10:39:25;;;;;;;6.23;5.70;;;2.70;72.60;;;2.73;64.84;99669.44;5072105;28;20466;-76